Baker, Minnesota
Current Conditions -  °F | °C
As of 4:31 AM on Tuesday 27 Jan 2015 (Local Time) from KJKJ Reporting Station
Haze Haze  
Wind Chill: 21°   Ceiling: 300
Heat Index: 27°   Visibility: 3mi
Dew Point: 27°   Wind: 5mph
Humidity: 100%   Direction: 140°SE
Pressure: 30.06"   Gusts: NA
Location:  46.71°N, 96.55°W
Report Text: KJKJ 271031Z AUTO 14004KT 3SM BR OVC003 M03/M03 A3006 RMK AO2
Loading
Personal Weather Stations






























Interactive Weather Map New forecast layout! Learn more

10-Day Weather Forecast

Advertisements
Track Severe Weather on mobile